createdAt,value
2022-09-12T00:02:05.218Z,100030.41
2022-09-12T00:04:34.073Z,100038.75
2022-09-12T00:07:02.751Z,100030.63
2022-09-12T00:09:32.679Z,100034.81
2022-09-12T00:12:01.569Z,100030.53
2022-09-12T00:14:30.732Z,100023.00
2022-09-12T00:17:00.606Z,100030.28
2022-09-12T00:19:31.548Z,100037.69
2022-09-12T00:22:00.224Z,100032.81
2022-09-12T00:24:28.963Z,100029.72
2022-09-12T00:26:59.068Z,100029.41
2022-09-12T00:29:27.702Z,100028.81
2022-09-12T00:31:56.302Z,100035.63
2022-09-12T00:34:25.179Z,100033.91
2022-09-12T00:36:53.862Z,100026.03
2022-09-12T00:39:22.448Z,100036.09
2022-09-12T00:41:51.684Z,100033.25
2022-09-12T00:44:51.069Z,100030.50
2022-09-12T00:47:26.237Z,100031.41
2022-09-12T00:50:06.226Z,100028.69
2022-09-12T00:52:42.702Z,100029.97
2022-09-12T00:55:16.556Z,100032.91
2022-09-12T01:02:20.049Z,100031.91
2022-09-12T01:04:49.662Z,100034.41
2022-09-12T01:07:18.468Z,100040.44
2022-09-12T01:09:48.128Z,100037.41
2022-09-12T01:12:17.764Z,100046.63
2022-09-12T01:14:46.475Z,100042.91
2022-09-12T01:17:16.937Z,100046.22
2022-09-12T01:20:28.393Z,100042.91
2022-09-12T01:24:08.054Z,100036.56
2022-09-12T01:27:35.757Z,100052.59
2022-09-12T01:30:49.094Z,100046.38
2022-09-12T01:33:35.266Z,100044.84
2022-09-12T01:36:46.036Z,100045.56
2022-09-12T01:39:31.274Z,100050.81
2022-09-12T01:42:16.320Z,100052.16
2022-09-12T01:49:24.513Z,100059.69
2022-09-12T01:52:04.594Z,100064.97
2022-09-12T01:54:42.259Z,100047.72
2022-09-12T01:57:19.934Z,100056.47
2022-09-12T01:59:55.769Z,100060.88
2022-09-12T02:02:33.229Z,100052.78
2022-09-12T02:05:11.640Z,100068.72
2022-09-12T02:07:47.490Z,100058.25
2022-09-12T02:10:21.842Z,100051.28
2022-09-12T02:12:58.448Z,100058.38
2022-09-12T02:15:33.641Z,100051.78
2022-09-12T02:18:07.029Z,100060.28
2022-09-12T02:20:49.116Z,100067.13
2022-09-12T02:23:24.425Z,100064.63
2022-09-12T02:26:01.306Z,100069.03
2022-09-12T02:28:35.738Z,100065.16
2022-09-12T02:31:18.773Z,100074.06
2022-09-12T02:33:59.060Z,100068.22
2022-09-12T02:36:46.188Z,100079.22
2022-09-12T02:39:19.615Z,100070.69
2022-09-12T02:41:49.183Z,100073.50
2022-09-12T02:44:18.012Z,100061.13
2022-09-12T02:46:51.714Z,100075.34
2022-09-12T02:49:21.221Z,100080.50
2022-09-12T02:51:52.038Z,100079.75
2022-09-12T02:54:22.429Z,100075.41
2022-09-12T02:56:51.174Z,100081.88
2022-09-12T02:59:24.107Z,100076.81
2022-09-12T03:02:23.330Z,100079.03
2022-09-12T03:05:25.899Z,100079.94
2022-09-12T03:08:52.058Z,100071.44
2022-09-12T03:11:39.201Z,100087.47
2022-09-12T03:14:31.673Z,100084.84
2022-09-12T03:17:15.599Z,100084.13
2022-09-12T03:19:59.985Z,100096.47
2022-09-12T03:22:37.989Z,100088.66
2022-09-12T03:25:18.703Z,100100.06
2022-09-12T03:28:00.207Z,100098.88
2022-09-12T03:30:29.173Z,100102.59
2022-09-12T03:32:57.849Z,100106.50
2022-09-12T03:35:26.795Z,100113.00
2022-09-12T03:37:55.583Z,100113.72
2022-09-12T03:40:25.513Z,100115.97
2022-09-12T03:42:54.087Z,100111.91
2022-09-12T03:45:22.905Z,100116.41
2022-09-12T03:47:51.577Z,100117.06
2022-09-12T03:50:20.343Z,100115.84
2022-09-12T03:52:49.160Z,100122.34
2022-09-12T03:55:18.200Z,100112.25
2022-09-12T03:57:48.333Z,100125.81
2022-09-12T04:00:19.895Z,100128.84
2022-09-12T04:02:48.704Z,100124.03
2022-09-12T04:09:49.289Z,100137.03
2022-09-12T04:12:18.095Z,100115.16
2022-09-12T04:14:48.058Z,100131.47
2022-09-12T04:17:17.248Z,100127.25
2022-09-12T04:19:45.995Z,100135.50
2022-09-12T04:22:14.948Z,100144.44
2022-09-12T04:24:43.526Z,100146.94
2022-09-12T04:27:12.323Z,100147.88
2022-09-12T04:29:41.620Z,100138.16
2022-09-12T04:32:11.755Z,100143.69
2022-09-12T04:34:40.538Z,100135.16
2022-09-12T04:37:09.094Z,100141.44
2022-09-12T04:39:37.687Z,100139.81
2022-09-12T04:42:07.304Z,100138.72
2022-09-12T04:49:10.710Z,100147.66
2022-09-12T04:51:42.286Z,100147.81
2022-09-12T04:54:17.445Z,100140.31
2022-09-12T04:56:48.791Z,100145.59
2022-09-12T05:03:50.383Z,100140.66
2022-09-12T05:06:22.831Z,100156.97
2022-09-12T05:08:53.223Z,100149.31
2022-09-12T05:11:33.006Z,100153.72
2022-09-12T05:14:10.750Z,100163.69
2022-09-12T05:16:40.315Z,100151.69
2022-09-12T05:19:10.680Z,100163.03
2022-09-12T05:21:40.600Z,100159.47
2022-09-12T05:24:11.975Z,100159.75
2022-09-12T05:26:40.570Z,100170.41
2022-09-12T05:29:09.239Z,100182.84
2022-09-12T05:31:39.175Z,100182.63
2022-09-12T05:34:10.249Z,100175.81
2022-09-12T05:36:40.667Z,100178.53
2022-09-12T05:39:09.548Z,100177.84
2022-09-12T05:41:38.185Z,100180.03
2022-09-12T05:44:14.138Z,100186.03
2022-09-12T05:51:19.283Z,100168.88
2022-09-12T05:53:52.918Z,100189.31
2022-09-12T05:56:25.338Z,100184.72
2022-09-12T05:58:57.194Z,100194.16
2022-09-12T06:01:28.164Z,100180.34
2022-09-12T06:04:00.907Z,100191.31
2022-09-12T06:06:32.444Z,100182.13
2022-09-12T06:09:05.156Z,100186.41
2022-09-12T06:11:37.305Z,100185.72
2022-09-12T06:14:06.280Z,100178.19
2022-09-12T06:16:37.298Z,100182.84
2022-09-12T06:23:39.302Z,100191.75
2022-09-12T06:26:11.983Z,100185.13
2022-09-12T06:28:44.943Z,100147.47
2022-09-12T06:35:47.768Z,100193.03
2022-09-12T06:38:17.406Z,100187.66
2022-09-12T06:40:46.249Z,100195.81
2022-09-12T06:43:16.428Z,100191.59
2022-09-12T06:45:51.145Z,100199.66
2022-09-12T06:48:20.146Z,100200.28
2022-09-12T06:50:58.834Z,100192.31
2022-09-12T06:53:29.324Z,100192.47
2022-09-12T06:55:59.662Z,100189.22
2022-09-12T06:58:31.292Z,100191.00
2022-09-12T07:01:04.771Z,100186.72
2022-09-12T07:03:35.809Z,100191.16
2022-09-12T07:06:06.462Z,100197.25
2022-09-12T07:08:37.642Z,100190.13
2022-09-12T07:11:16.645Z,100200.72
2022-09-12T07:18:18.074Z,100203.00
2022-09-12T07:20:46.847Z,100206.63
2022-09-12T07:23:15.392Z,100213.06
2022-09-12T07:25:44.009Z,100209.00
2022-09-12T07:28:12.955Z,100217.06
2022-09-12T07:30:41.751Z,100197.25
2022-09-12T07:33:10.525Z,100221.94
2022-09-12T07:35:40.695Z,100231.69
2022-09-12T07:38:09.403Z,100220.88
2022-09-12T07:40:38.008Z,100229.88
2022-09-12T07:43:06.803Z,100235.91
2022-09-12T07:45:35.668Z,100240.72
2022-09-12T07:48:04.976Z,100240.78
2022-09-12T07:50:34.256Z,100237.28
2022-09-12T07:53:04.242Z,100245.81
2022-09-12T07:55:33.918Z,100247.06
2022-09-12T07:58:03.903Z,100253.72
2022-09-12T08:00:35.973Z,100256.81
2022-09-12T08:07:35.868Z,100244.59
2022-09-12T08:10:07.381Z,100255.56
2022-09-12T08:12:36.836Z,100254.50
2022-09-12T08:15:07.133Z,100266.19
2022-09-12T08:17:35.822Z,100264.13
2022-09-12T08:20:05.494Z,100267.13
2022-09-12T08:22:34.673Z,100259.50
2022-09-12T08:25:06.627Z,100255.16
2022-09-12T08:27:35.440Z,100272.19
2022-09-12T08:30:05.362Z,100271.06
2022-09-12T08:32:36.221Z,100268.72
2022-09-12T08:35:05.476Z,100262.38
2022-09-12T08:37:34.206Z,100264.94
2022-09-12T08:40:08.547Z,100266.13
2022-09-12T08:42:53.951Z,100269.91
2022-09-12T08:45:33.119Z,100263.59
2022-09-12T08:48:05.847Z,100254.06
2022-09-12T08:50:34.663Z,100261.38
2022-09-12T08:53:13.625Z,100260.72
2022-09-12T08:55:47.341Z,100261.56
2022-09-12T08:58:19.719Z,100271.94
2022-09-12T09:01:01.806Z,100268.34
2022-09-12T09:04:13.851Z,100274.97
2022-09-12T09:07:18.308Z,100269.75
2022-09-12T09:10:04.154Z,100268.72
2022-09-12T09:12:48.638Z,100274.28
2022-09-12T09:15:49.853Z,100267.78
2022-09-12T09:18:25.071Z,100268.50
2022-09-12T09:20:59.680Z,100273.31
2022-09-12T09:23:33.431Z,100275.53
2022-09-12T09:26:11.365Z,100276.28
2022-09-12T09:28:47.497Z,100275.00
2022-09-12T09:31:18.446Z,100282.69
2022-09-12T09:33:51.711Z,100278.28
2022-09-12T09:36:27.045Z,100280.69
2022-09-12T09:39:05.875Z,100277.22
2022-09-12T09:41:53.899Z,100280.84
2022-09-12T09:44:24.746Z,100279.63
2022-09-12T09:46:59.126Z,100287.97
2022-09-12T09:49:31.426Z,100270.16
2022-09-12T09:52:02.750Z,100283.41
2022-09-12T09:54:39.838Z,100288.28
2022-09-12T09:57:42.096Z,100273.91
2022-09-12T10:00:32.786Z,100291.59
2022-09-12T10:03:30.919Z,100302.09
2022-09-12T10:06:03.108Z,100290.88
2022-09-12T10:08:35.375Z,100244.41
2022-09-12T10:11:08.791Z,100300.50
2022-09-12T10:13:43.175Z,100307.84
2022-09-12T10:16:23.249Z,100307.47
2022-09-12T10:18:53.950Z,100313.34
2022-09-12T10:21:35.841Z,100311.66
2022-09-12T10:24:22.640Z,100320.28
2022-09-12T10:26:57.169Z,100318.97
2022-09-12T10:29:31.765Z,100308.47
2022-09-12T10:32:07.262Z,100311.19
2022-09-12T10:34:40.545Z,100317.25
2022-09-12T10:37:16.780Z,100320.78
2022-09-12T10:39:54.384Z,100319.44
2022-09-12T10:42:47.950Z,100313.69
2022-09-12T10:45:26.762Z,100328.22
2022-09-12T10:48:02.082Z,100321.75
2022-09-12T10:50:40.909Z,100328.13
2022-09-12T10:53:21.382Z,100334.59
2022-09-12T10:56:08.918Z,100336.19
2022-09-12T10:59:05.522Z,100329.09
2022-09-12T11:01:42.813Z,100334.84
2022-09-12T11:04:34.775Z,100329.22
2022-09-12T11:07:22.869Z,100337.34
2022-09-12T11:10:04.419Z,100343.47
2022-09-12T11:12:44.731Z,100339.59
2022-09-12T11:15:41.845Z,100341.38
2022-09-12T11:18:28.299Z,100338.06
2022-09-12T11:21:20.675Z,100334.41
2022-09-12T11:24:22.904Z,100341.00
2022-09-12T11:28:30.314Z,100343.81
2022-09-12T11:31:23.568Z,100326.31
2022-09-12T11:33:56.699Z,100337.06
2022-09-12T11:36:38.742Z,100332.06
2022-09-12T11:39:18.535Z,100339.31
2022-09-12T11:41:53.638Z,100340.28
2022-09-12T11:44:30.213Z,100335.84
2022-09-12T11:47:00.867Z,100341.13
2022-09-12T11:49:39.924Z,100332.47
2022-09-12T11:52:17.014Z,100345.75
2022-09-12T11:54:54.045Z,100347.00
2022-09-12T11:57:34.842Z,100352.03
2022-09-12T12:00:08.642Z,100344.19
2022-09-12T12:02:49.242Z,100351.31
2022-09-12T12:05:26.002Z,100341.13
2022-09-12T12:07:58.431Z,100341.13
2022-09-12T12:10:37.244Z,100349.38
2022-09-12T12:13:18.168Z,100340.88
2022-09-12T12:15:51.563Z,100342.25
2022-09-12T12:18:25.619Z,100349.31
2022-09-12T12:20:58.081Z,100353.53
2022-09-12T12:23:33.311Z,100346.59
2022-09-12T12:26:04.601Z,100356.00
2022-09-12T12:29:00.267Z,100340.94
2022-09-12T12:31:29.029Z,100347.97
2022-09-12T12:34:28.672Z,100355.13
2022-09-12T12:36:59.198Z,100348.25
2022-09-12T12:40:09.293Z,100351.34
2022-09-12T12:43:04.642Z,100351.47
2022-09-12T12:46:14.396Z,100352.31
2022-09-12T12:49:18.943Z,100349.53
2022-09-12T12:51:58.206Z,100349.75
2022-09-12T12:59:06.166Z,100334.97
2022-09-12T13:01:41.037Z,100358.72
2022-09-12T13:04:18.903Z,100361.25
2022-09-12T13:11:34.490Z,100357.03
2022-09-12T13:14:09.516Z,100355.25
2022-09-12T13:16:55.701Z,100359.09
2022-09-12T13:19:30.478Z,100362.50
2022-09-12T13:22:03.451Z,100361.47
2022-09-12T13:24:32.326Z,100354.94
2022-09-12T13:27:02.285Z,100364.19
2022-09-12T13:29:32.371Z,100361.38
2022-09-12T13:32:04.145Z,100367.25
2022-09-12T13:34:38.359Z,100363.06
2022-09-12T13:37:48.656Z,100365.50
2022-09-12T13:40:36.407Z,100365.75
2022-09-12T13:43:15.938Z,100363.78
2022-09-12T13:45:48.695Z,100368.88
2022-09-12T13:48:22.617Z,100367.78
2022-09-12T13:50:56.231Z,100370.59
2022-09-12T13:53:29.844Z,100360.97
2022-09-12T13:56:00.963Z,100366.97
2022-09-12T13:58:33.008Z,100358.47
2022-09-12T14:01:07.715Z,100364.19
2022-09-12T14:04:00.834Z,100356.25
2022-09-12T14:06:29.960Z,100356.34
2022-09-12T14:09:01.506Z,100356.94
2022-09-12T14:11:33.942Z,100359.22
2022-09-12T14:14:17.281Z,100360.28
2022-09-12T14:16:47.435Z,100365.28
2022-09-12T14:19:19.461Z,100364.38
2022-09-12T14:21:49.907Z,100364.00
2022-09-12T14:24:19.786Z,100364.09
2022-09-12T14:26:50.392Z,100357.88
2022-09-12T14:29:20.971Z,100362.22
2022-09-12T14:32:03.691Z,100353.53
2022-09-12T14:34:32.495Z,100357.22
2022-09-12T14:37:07.295Z,100363.28
2022-09-12T14:39:44.129Z,100358.91
2022-09-12T14:42:18.969Z,100352.56
2022-09-12T14:44:58.768Z,100367.19
2022-09-12T14:47:42.107Z,100356.91
2022-09-12T14:50:19.694Z,100358.81
2022-09-12T14:53:04.233Z,100360.50
2022-09-12T14:55:35.659Z,100356.38
2022-09-12T14:58:23.517Z,100356.94
2022-09-12T15:00:59.281Z,100355.41
2022-09-12T15:03:33.765Z,100354.16
2022-09-12T15:06:04.937Z,100356.66
2022-09-12T15:08:34.461Z,100353.91
2022-09-12T15:11:03.334Z,100367.88
2022-09-12T15:13:42.840Z,100368.22
2022-09-12T15:16:13.995Z,100356.28
2022-09-12T15:18:44.390Z,100364.09
2022-09-12T15:21:18.526Z,100365.22
2022-09-12T15:23:49.857Z,100371.44
2022-09-12T15:26:21.851Z,100370.72
2022-09-12T15:28:52.130Z,100365.56
2022-09-12T15:31:26.398Z,100362.09
2022-09-12T15:33:58.517Z,100367.78
2022-09-12T15:36:28.910Z,100366.06
2022-09-12T15:38:58.204Z,100380.66
2022-09-12T15:41:34.014Z,100373.00
2022-09-12T15:44:04.589Z,100372.06
2022-09-12T15:46:33.249Z,100370.63
2022-09-12T15:49:03.442Z,100376.63
2022-09-12T15:51:32.343Z,100374.03
2022-09-12T15:54:04.605Z,100358.25
2022-09-12T15:56:33.398Z,100372.53
2022-09-12T15:59:02.078Z,100366.78
2022-09-12T16:01:30.910Z,100372.78
2022-09-12T16:03:59.898Z,100371.44
2022-09-12T16:06:37.044Z,100370.25
2022-09-12T16:09:06.317Z,100368.53
2022-09-12T16:11:35.536Z,100374.59
2022-09-12T16:14:06.380Z,100379.44
2022-09-12T16:16:35.759Z,100372.59
2022-09-12T16:19:05.237Z,100371.00
2022-09-12T16:21:35.321Z,100375.44
2022-09-12T16:24:05.646Z,100366.59
2022-09-12T16:26:35.526Z,100371.88
2022-09-12T16:29:04.318Z,100378.41
2022-09-12T16:31:33.372Z,100370.00
2022-09-12T16:34:02.096Z,100374.72
2022-09-12T16:36:30.723Z,100366.91
2022-09-12T16:39:00.996Z,100370.50
2022-09-12T16:46:04.693Z,100364.53
2022-09-12T16:48:34.397Z,100357.00
2022-09-12T16:51:06.897Z,100354.09
2022-09-12T16:53:39.645Z,100366.47
2022-09-12T16:56:11.206Z,100361.28
2022-09-12T16:58:43.186Z,100369.50
2022-09-12T17:01:16.697Z,100374.31
2022-09-12T17:03:45.724Z,100366.53
2022-09-12T17:06:17.434Z,100367.00
2022-09-12T17:08:49.018Z,100366.19
2022-09-12T17:11:22.074Z,100351.19
2022-09-12T17:14:09.943Z,100380.59
2022-09-12T17:16:49.290Z,100376.28
2022-09-12T17:19:26.431Z,100385.19
2022-09-12T17:21:55.741Z,100396.69
2022-09-12T17:24:25.241Z,100391.69
2022-09-12T17:26:57.273Z,100395.16
2022-09-12T17:29:26.090Z,100383.16
2022-09-12T17:31:56.172Z,100390.47
2022-09-12T17:34:24.904Z,100388.81
2022-09-12T17:36:54.042Z,100387.97
2022-09-12T17:39:23.171Z,100382.94
2022-09-12T17:41:52.373Z,100386.53
2022-09-12T17:44:24.424Z,100393.28
2022-09-12T17:46:53.395Z,100390.63
2022-09-12T17:54:01.129Z,100391.09
2022-09-12T17:56:32.490Z,100391.69
2022-09-12T17:59:03.340Z,100371.66
2022-09-12T18:01:53.029Z,100390.41
2022-09-12T18:04:22.277Z,100385.22
2022-09-12T18:06:51.310Z,100360.75
2022-09-12T18:09:23.765Z,100379.72
2022-09-12T18:11:53.763Z,100381.63
2022-09-12T18:14:23.134Z,100388.47
2022-09-12T18:16:53.507Z,100388.75
2022-09-12T18:19:23.383Z,100389.69
2022-09-12T18:21:52.049Z,100390.63
2022-09-12T18:24:21.632Z,100392.69
2022-09-12T18:26:50.575Z,100390.91
2022-09-12T18:29:20.373Z,100381.75
2022-09-12T18:31:49.765Z,100386.34
2022-09-12T18:34:20.639Z,100392.31
2022-09-12T18:36:51.673Z,100391.63
2022-09-12T18:39:24.107Z,100390.91
2022-09-12T18:41:57.020Z,100390.19
2022-09-12T18:44:26.287Z,100395.59
2022-09-12T18:46:55.426Z,100395.47
2022-09-12T18:49:25.844Z,100392.34
2022-09-12T18:51:54.743Z,100397.03
2022-09-12T18:54:23.432Z,100392.59
2022-09-12T18:56:52.132Z,100387.06
2022-09-12T18:59:21.102Z,100383.84
2022-09-12T19:01:50.746Z,100388.25
2022-09-12T19:04:20.241Z,100386.13
2022-09-12T19:06:50.653Z,100388.75
2022-09-12T19:09:22.107Z,100373.63
2022-09-12T19:11:52.790Z,100396.69
2022-09-12T19:14:25.009Z,100395.81
2022-09-12T19:16:55.073Z,100404.81
2022-09-12T19:19:24.542Z,100405.78
2022-09-12T19:21:54.950Z,100399.31
2022-09-12T19:24:24.437Z,100409.84
2022-09-12T19:26:53.410Z,100401.22
2022-09-12T19:29:22.106Z,100403.63
2022-09-12T19:31:51.302Z,100396.16
2022-09-12T19:34:20.138Z,100395.47
2022-09-12T19:36:48.881Z,100400.59
2022-09-12T19:39:20.654Z,100396.50
2022-09-12T19:41:49.734Z,100384.25
2022-09-12T19:44:20.049Z,100386.34
2022-09-12T19:46:48.904Z,100386.00
2022-09-12T19:49:17.762Z,100374.53
2022-09-12T19:51:46.622Z,100385.53
2022-09-12T19:54:15.269Z,100390.31
2022-09-12T19:56:45.222Z,100381.50
2022-09-12T19:59:14.181Z,100378.59
2022-09-12T20:01:43.096Z,100372.22
2022-09-12T20:04:11.933Z,100368.38
2022-09-12T20:06:40.841Z,100372.94
2022-09-12T20:09:09.437Z,100370.63
2022-09-12T20:11:38.044Z,100362.06
2022-09-12T20:14:08.206Z,100366.09
2022-09-12T20:16:36.944Z,100367.41
2022-09-12T20:19:08.690Z,100358.59
2022-09-12T20:21:38.048Z,100352.59
2022-09-12T20:24:11.133Z,100362.13
2022-09-12T20:26:41.034Z,100373.50
2022-09-12T20:29:11.864Z,100376.44
2022-09-12T20:31:43.516Z,100372.78
2022-09-12T20:34:17.426Z,100369.22
2022-09-12T20:36:47.067Z,100358.16
2022-09-12T20:39:18.933Z,100371.34
2022-09-12T20:41:48.474Z,100368.19
2022-09-12T20:44:18.888Z,100372.81
2022-09-12T20:46:47.890Z,100366.53
2022-09-12T20:49:16.747Z,100364.66
2022-09-12T20:51:45.432Z,100365.59
2022-09-12T20:54:14.027Z,100368.47
2022-09-12T20:56:43.194Z,100367.84
2022-09-12T20:59:13.055Z,100361.91
2022-09-12T21:01:44.064Z,100363.19
2022-09-12T21:04:15.269Z,100361.09
2022-09-12T21:06:44.117Z,100366.75
2022-09-12T21:09:12.795Z,100362.97
2022-09-12T21:11:41.713Z,100367.00
2022-09-12T21:14:10.593Z,100359.41
2022-09-12T21:16:39.393Z,100360.47
2022-09-12T21:19:10.009Z,100369.06
2022-09-12T21:21:38.652Z,100372.00
2022-09-12T21:24:08.583Z,100369.06
2022-09-12T21:26:37.381Z,100367.78
2022-09-12T21:29:06.334Z,100368.00
2022-09-12T21:31:34.985Z,100361.25
2022-09-12T21:34:03.996Z,100373.03
2022-09-12T21:36:33.877Z,100371.56
2022-09-12T21:39:02.540Z,100356.19
2022-09-12T21:41:31.299Z,100366.78
2022-09-12T21:43:59.972Z,100368.97
2022-09-12T21:46:28.629Z,100364.97
2022-09-12T21:48:57.511Z,100359.00
2022-09-12T21:51:26.288Z,100354.66
2022-09-12T21:53:56.221Z,100349.81
2022-09-12T21:56:24.999Z,100357.50
2022-09-12T21:58:53.572Z,100351.50
2022-09-12T22:01:22.336Z,100350.97
2022-09-12T22:03:52.056Z,100344.09
2022-09-12T22:06:22.534Z,100347.13
2022-09-12T22:08:51.550Z,100347.41
2022-09-12T22:11:22.930Z,100353.06
2022-09-12T22:13:51.533Z,100357.78
2022-09-12T22:16:20.786Z,100356.19
2022-09-12T22:18:50.775Z,100347.56
2022-09-12T22:21:24.281Z,100354.47
2022-09-12T22:24:10.760Z,100355.53
2022-09-12T22:26:46.402Z,100354.88
2022-09-12T22:29:15.239Z,100345.50
2022-09-12T22:31:43.960Z,100335.50
2022-09-12T22:34:12.738Z,100337.59
2022-09-12T22:36:41.795Z,100340.94
2022-09-12T22:39:10.473Z,100330.63
2022-09-12T22:41:39.247Z,100338.06
2022-09-12T22:44:10.533Z,100342.66
2022-09-12T22:46:40.144Z,100342.00
2022-09-12T22:49:09.076Z,100347.06
2022-09-12T22:51:38.053Z,100341.09
2022-09-12T22:54:07.213Z,100343.59
2022-09-12T22:56:36.078Z,100332.75
2022-09-12T22:59:05.605Z,100339.56
2022-09-12T23:01:36.474Z,100338.56
2022-09-12T23:04:05.401Z,100340.34
2022-09-12T23:06:34.209Z,100334.72
2022-09-12T23:09:02.840Z,100339.22
2022-09-12T23:11:31.721Z,100347.94
2022-09-12T23:14:00.430Z,100341.63
2022-09-12T23:16:32.119Z,100338.53
2022-09-12T23:19:02.156Z,100339.03
2022-09-12T23:21:31.021Z,100332.09
2022-09-12T23:23:59.685Z,100328.72
2022-09-12T23:26:29.668Z,100329.22
2022-09-12T23:29:01.878Z,100330.22
2022-09-12T23:31:33.031Z,100311.41
2022-09-12T23:34:06.877Z,100320.31
2022-09-12T23:36:35.931Z,100321.25
2022-09-12T23:39:05.624Z,100310.09
2022-09-12T23:41:34.231Z,100308.69
2022-09-12T23:44:03.485Z,100319.34
2022-09-12T23:46:32.549Z,100314.09
2022-09-12T23:49:02.578Z,100315.78
2022-09-12T23:51:31.307Z,100316.63
2022-09-12T23:54:00.107Z,100319.25
2022-09-12T23:56:28.687Z,100310.81
2022-09-12T23:58:57.349Z,100324.78
